Gure Amuitz — EASO — position and weather

sailwx.info

Track history (hours):
 
Tides and Currents Weather Stations Pressure Air Temp Water Temp Dewpoint Dewpoint Depression Visibility Wind Speed Wind Dir Waves Ship Positions

Gure Amuitz

Last reported at 2016-Sep-26 02:33 UTC. Time now 2016-Sep-28 00:05 UTC.
Position N 43°36' W 005°29'.

Length 28 m.

Type: Fishing. MMSI: 224010590.

Date/timePositionNaut miles runAvg speedWind from/ knotsBaromVisibWave heightAir tempDewpointWater temp
2016-Sep-26 02:33N 43°36' W 005°29'9 9.5
2016-Sep-26 01:33N 43°34' W 005°41'1 0.5
2016-Sep-26 00:33N 43°33' W 005°42'0 0.0
2016-Sep-25 17:33N 43°33' W 005°42'0 0.0
2016-Sep-25 16:31N 43°33' W 005°42'0 0.0
2016-Sep-25 15:25N 43°33' W 005°42'0 0.0
2016-Sep-25 14:33N 43°33' W 005°42'0 0.0
2016-Sep-25 12:30N 43°33' W 005°42'0 0.0
2016-Sep-25 11:32N 43°33' W 005°42'0 0.0
2016-Sep-25 10:32N 43°33' W 005°42'0 0.0
2016-Sep-25 09:33N 43°33' W 005°42'0 0.0
2016-Sep-25 07:33N 43°33' W 005°42'0 0.0
2016-Sep-25 04:33N 43°33' W 005°42'0 0.0
2016-Sep-25 00:31N 43°33' W 005°42'  
2016-Sep-19 07:32N 44°52' W 001°33'10 9.5
2016-Sep-19 06:31N 44°42' W 001°32'10 3.5
2016-Sep-19 03:33N 44°32' W 001°29'70 5.2
2016-Sep-18 14:04N 43°23' W 001°47'0 0.0
2016-Sep-17 10:23N 43°23' W 001°47'0 0.0
2016-Sep-16 15:03N 43°23' W 001°47'0 0.0
2016-Sep-16 12:32N 43°23' W 001°47'  
Track history (hours):
 
Tides and Currents Weather Stations Pressure Air Temp Water Temp Dewpoint Dewpoint Depression Visibility Wind Speed Wind Dir Waves Ship Positions

Gure Amuitz

Last reported at 2016-Sep-26 02:33 UTC. Time now 2016-Sep-28 00:05 UTC.
Position N 43°36' W 005°29'.

Length 28 m.

Type: Fishing. MMSI: 224010590.

Date/timePositionNaut miles runAvg speedWind from/ knotsBaromVisibWave heightAir tempDewpointWater temp
2016-Sep-26 02:33N 43°36' W 005°29'9 9.5
2016-Sep-26 01:33N 43°34' W 005°41'1 0.5
2016-Sep-26 00:33N 43°33' W 005°42'0 0.0
2016-Sep-25 17:33N 43°33' W 005°42'0 0.0
2016-Sep-25 16:31N 43°33' W 005°42'0 0.0
2016-Sep-25 15:25N 43°33' W 005°42'0 0.0
2016-Sep-25 14:33N 43°33' W 005°42'0 0.0
2016-Sep-25 12:30N 43°33' W 005°42'0 0.0
2016-Sep-25 11:32N 43°33' W 005°42'0 0.0
2016-Sep-25 10:32N 43°33' W 005°42'0 0.0
2016-Sep-25 09:33N 43°33' W 005°42'0 0.0
2016-Sep-25 07:33N 43°33' W 005°42'0 0.0
2016-Sep-25 04:33N 43°33' W 005°42'0 0.0
2016-Sep-25 00:31N 43°33' W 005°42'  
2016-Sep-19 07:32N 44°52' W 001°33'10 9.5
2016-Sep-19 06:31N 44°42' W 001°32'10 3.5
2016-Sep-19 03:33N 44°32' W 001°29'70 5.2
2016-Sep-18 14:04N 43°23' W 001°47'0 0.0
2016-Sep-17 10:23N 43°23' W 001°47'0 0.0
2016-Sep-16 15:03N 43°23' W 001°47'0 0.0
2016-Sep-16 12:32N 43°23' W 001°47'  

Dump ship's entire track history